PWSweather.com
Personal Weather Stations
Station Observations
PITCARMI1
La Serra, CarmignanoIT 59015

La SerraCarmignanoIT 59015

Lat: 43.804429, Lon: 11.027222

Elevation: 525

Station Type: Davis Vantage Vue

http://www.meteocarmignano.it

High Low Average
Temperature 70.4°F21.3°F 62.8°F17.1°F 66.0°F18.9°F
Dew Point 65.7°F18.7°F 60.8°F16.0°F 62.7°F17.1°F
Winds 5.8 mph WSW9.3 mph WSW Calm Calm 1.8 mph 2.9 mph
Wind Gusts 8.1 mph13.0 mph -- 3.0 mph4.8 mph
Humidity 95% 82% 89%
Pressure 30.04 in1017.30 in 29.65 in1004.10 in -
Precipitation 0.06 in1.50 in - -
Hour Temp Dew Point Humidity Winds Wind Gusts Pressure Precip Precip Rate Daily Precip Total
12:00 AM 63.9°F17.7°C 61.2°F16.2°C 91% 1.2 mph E1.9 kmh E 2.3 mph3.7 kmh 30.04 in1017.3 mb 0.00 in0.0 mm 0.00 in/hr0.0 mm/hr 0.00 in0.0 mm
12:30 AM 64.0°F17.8°C 61.3°F16.3°C 91% Calm Calm -- 30.03 in1016.9 mb 0.00 in0.0 mm 0.00 in/hr0.0 mm/hr 0.00 in0.0 mm
01:00 AM 64.0°F17.8°C 61.3°F16.3°C 91% 2.3 mph SW3.7 kmh SW 3.5 mph5.6 kmh 30.02 in1016.6 mb 0.00 in0.0 mm 0.00 in/hr0.0 mm/hr 0.00 in0.0 mm
01:30 AM 64.1°F17.8°C 61.4°F16.3°C 91% 1.2 mph SW1.9 kmh SW 3.5 mph5.6 kmh 30.01 in1016.3 mb 0.00 in0.0 mm 0.00 in/hr0.0 mm/hr 0.00 in0.0 mm
02:00 AM 63.7°F17.6°C 61.3°F16.3°C 92% 2.3 mph SW3.7 kmh SW 2.3 mph3.7 kmh 30.00 in1015.9 mb 0.00 in0.0 mm 0.00 in/hr0.0 mm/hr 0.00 in0.0 mm
02:30 AM 64.0°F17.8°C 61.6°F16.4°C 92% 1.2 mph SW1.9 kmh SW 2.3 mph3.7 kmh 29.99 in1015.6 mb 0.00 in0.0 mm 0.00 in/hr0.0 mm/hr 0.00 in0.0 mm
03:00 AM 64.4°F18.0°C 61.7°F16.5°C 91% 4.6 mph SW7.4 kmh SW 5.8 mph9.3 kmh 29.98 in1015.2 mb 0.00 in0.0 mm 0.00 in/hr0.0 mm/hr 0.00 in0.0 mm
03:30 AM 64.1°F17.8°C 61.4°F16.3°C 91% 1.2 mph SW1.9 kmh SW 2.3 mph3.7 kmh 29.96 in1014.6 mb 0.00 in0.0 mm 0.00 in/hr0.0 mm/hr 0.00 in0.0 mm
04:00 AM 63.7°F17.6°C 61.0°F16.1°C 91% 4.6 mph SW7.4 kmh SW 5.8 mph9.3 kmh 29.96 in1014.6 mb 0.00 in0.0 mm 0.00 in/hr0.0 mm/hr 0.00 in0.0 mm
04:30 AM 63.8°F17.7°C 61.1°F16.2°C 91% 3.5 mph SW5.6 kmh SW 4.6 mph7.4 kmh 29.95 in1014.2 mb 0.00 in0.0 mm 0.00 in/hr0.0 mm/hr 0.00 in0.0 mm
05:00 AM 63.5°F17.5°C 61.1°F16.2°C 92% Calm Calm -- 29.94 in1013.9 mb 0.00 in0.0 mm 0.00 in/hr0.0 mm/hr 0.00 in0.0 mm
05:30 AM 63.4°F17.4°C 61.0°F16.1°C 92% Calm Calm -- 29.93 in1013.5 mb 0.00 in0.0 mm 0.00 in/hr0.0 mm/hr 0.00 in0.0 mm
06:00 AM 63.5°F17.5°C 60.8°F16.0°C 91% 1.2 mph E1.9 kmh E 3.5 mph5.6 kmh 29.92 in1013.2 mb 0.00 in0.0 mm 0.00 in/hr0.0 mm/hr 0.00 in0.0 mm
06:30 AM 63.4°F17.4°C 61.0°F16.1°C 92% 1.2 mph SW1.9 kmh SW 2.3 mph3.7 kmh 29.92 in1013.2 mb 0.00 in0.0 mm 0.00 in/hr0.0 mm/hr 0.00 in0.0 mm
07:00 AM 62.9°F17.2°C 60.8°F16.0°C 93% 2.3 mph ESE3.7 kmh ESE 3.5 mph5.6 kmh 29.93 in1013.5 mb 0.00 in0.0 mm 0.00 in/hr0.0 mm/hr 0.00 in0.0 mm
07:30 AM 62.9°F17.2°C 60.8°F16.0°C 93% Calm Calm 1.2 mph1.9 kmh 29.93 in1013.5 mb 0.02 in0.5 mm 0.04 in/hr1.0 mm/hr 0.02 in0.5 mm
08:00 AM 62.8°F17.1°C 61.0°F16.1°C 94% 2.3 mph E3.7 kmh E 3.5 mph5.6 kmh 29.93 in1013.5 mb 0.01 in0.3 mm 0.02 in/hr0.5 mm/hr 0.02 in0.5 mm
08:30 AM 62.8°F17.1°C 61.3°F16.3°C 95% 2.3 mph E3.7 kmh E 3.5 mph5.6 kmh 29.94 in1013.9 mb 0.02 in0.5 mm 0.04 in/hr1.0 mm/hr 0.04 in1.0 mm
09:00 AM 62.9°F17.2°C 61.4°F16.3°C 95% 2.3 mph E3.7 kmh E 2.3 mph3.7 kmh 29.95 in1014.2 mb 0.00 in0.0 mm 0.00 in/hr0.0 mm/hr 0.04 in1.0 mm
09:30 AM 63.4°F17.4°C 61.9°F16.6°C 95% 1.2 mph E1.9 kmh E 2.3 mph3.7 kmh 29.95 in1014.2 mb 0.01 in0.3 mm 0.02 in/hr0.5 mm/hr 0.05 in1.3 mm
10:00 AM 63.9°F17.7°C 62.4°F16.9°C 95% 1.2 mph E1.9 kmh E 1.2 mph1.9 kmh 29.95 in1014.2 mb 0.00 in0.0 mm 0.00 in/hr0.0 mm/hr 0.05 in1.3 mm
10:30 AM 64.8°F18.2°C 63.1°F17.3°C 94% 1.2 mph E1.9 kmh E 1.2 mph1.9 kmh 29.95 in1014.2 mb 0.00 in0.0 mm 0.00 in/hr0.0 mm/hr 0.05 in1.3 mm
11:00 AM 65.8°F18.8°C 64.0°F17.8°C 94% Calm Calm 3.5 mph5.6 kmh 29.94 in1013.9 mb 0.00 in0.0 mm 0.00 in/hr0.0 mm/hr 0.05 in1.3 mm
11:30 AM 66.9°F19.4°C 64.2°F17.9°C 91% 1.2 mph E1.9 kmh E 2.3 mph3.7 kmh 29.93 in1013.5 mb 0.00 in0.0 mm 0.00 in/hr0.0 mm/hr 0.05 in1.3 mm
12:00 PM 66.7°F19.3°C 64.0°F17.8°C 91% 1.2 mph E1.9 kmh E 2.3 mph3.7 kmh 29.92 in1013.2 mb 0.00 in0.0 mm 0.00 in/hr0.0 mm/hr 0.05 in1.3 mm
12:30 PM 67.9°F19.9°C 64.9°F18.3°C 90% Calm Calm -- 29.91 in1012.9 mb 0.00 in0.0 mm 0.00 in/hr0.0 mm/hr 0.05 in1.3 mm
01:00 PM 68.0°F20.0°C 64.9°F18.3°C 90% 1.2 mph WSW1.9 kmh WSW 2.3 mph3.7 kmh 29.89 in1012.2 mb 0.00 in0.0 mm 0.00 in/hr0.0 mm/hr 0.05 in1.3 mm
01:30 PM 70.0°F21.1°C 65.7°F18.7°C 86% Calm Calm 1.2 mph1.9 kmh 29.87 in1011.5 mb 0.00 in0.0 mm 0.00 in/hr0.0 mm/hr 0.05 in1.3 mm
02:00 PM 70.2°F21.2°C 65.5°F18.6°C 85% 3.5 mph SW5.6 kmh SW 3.5 mph5.6 kmh 29.86 in1011.2 mb 0.00 in0.0 mm 0.00 in/hr0.0 mm/hr 0.05 in1.3 mm
02:30 PM 70.3°F21.3°C 64.5°F18.1°C 82% 3.5 mph WSW5.6 kmh WSW 3.5 mph5.6 kmh 29.85 in1010.8 mb 0.00 in0.0 mm 0.00 in/hr0.0 mm/hr 0.05 in1.3 mm
03:00 PM 70.3°F21.3°C 64.9°F18.3°C 83% 2.3 mph SW3.7 kmh SW 3.5 mph5.6 kmh 29.84 in1010.5 mb 0.00 in0.0 mm 0.00 in/hr0.0 mm/hr 0.05 in1.3 mm
03:30 PM 70.1°F21.2°C 65.0°F18.3°C 84% 3.5 mph WSW5.6 kmh WSW 6.9 mph11.1 kmh 29.83 in1010.2 mb 0.00 in0.0 mm 0.00 in/hr0.0 mm/hr 0.05 in1.3 mm
04:00 PM 70.4°F21.3°C 65.0°F18.3°C 83% 4.6 mph SW7.4 kmh SW 8.1 mph13.0 kmh 29.82 in1009.8 mb 0.00 in0.0 mm 0.00 in/hr0.0 mm/hr 0.05 in1.3 mm
04:30 PM 70.1°F21.2°C 64.3°F17.9°C 82% 3.5 mph SW5.6 kmh SW 8.1 mph13.0 kmh 29.82 in1009.8 mb 0.00 in0.0 mm 0.00 in/hr0.0 mm/hr 0.05 in1.3 mm
05:00 PM 69.2°F20.7°C 64.2°F17.9°C 84% 1.2 mph N1.9 kmh N 1.2 mph1.9 kmh 29.81 in1009.5 mb 0.00 in0.0 mm 0.00 in/hr0.0 mm/hr 0.05 in1.3 mm
05:30 PM 67.1°F19.5°C 63.7°F17.6°C 89% 2.3 mph NE3.7 kmh NE 3.5 mph5.6 kmh 29.81 in1009.5 mb 0.00 in0.0 mm 0.00 in/hr0.0 mm/hr 0.05 in1.3 mm
06:00 PM 66.6°F19.2°C 63.6°F17.6°C 90% Calm Calm 1.2 mph1.9 kmh 29.80 in1009.1 mb 0.00 in0.0 mm 0.00 in/hr0.0 mm/hr 0.05 in1.3 mm
06:30 PM 68.8°F20.4°C 63.0°F17.2°C 82% 5.8 mph WSW9.3 kmh WSW 8.1 mph13.0 kmh 29.79 in1008.8 mb 0.00 in0.0 mm 0.00 in/hr0.0 mm/hr 0.05 in1.3 mm
07:00 PM 68.7°F20.4°C 63.3°F17.4°C 83% 3.5 mph SW5.6 kmh SW 4.6 mph7.4 kmh 29.79 in1008.8 mb 0.00 in0.0 mm 0.00 in/hr0.0 mm/hr 0.05 in1.3 mm
07:30 PM 67.8°F19.9°C 63.5°F17.5°C 86% 1.2 mph WSW1.9 kmh WSW 2.3 mph3.7 kmh 29.78 in1008.5 mb 0.00 in0.0 mm 0.00 in/hr0.0 mm/hr 0.05 in1.3 mm
08:00 PM 67.3°F19.6°C 63.6°F17.6°C 88% 2.3 mph WSW3.7 kmh WSW 2.3 mph3.7 kmh 29.77 in1008.1 mb 0.00 in0.0 mm 0.00 in/hr0.0 mm/hr 0.05 in1.3 mm
08:30 PM 67.7°F19.8°C 63.4°F17.4°C 86% Calm Calm -- 29.76 in1007.8 mb 0.00 in0.0 mm 0.00 in/hr0.0 mm/hr 0.05 in1.3 mm
09:00 PM 66.4°F19.1°C 63.0°F17.2°C 89% Calm Calm -- 29.74 in1007.1 mb 0.00 in0.0 mm 0.00 in/hr0.0 mm/hr 0.05 in1.3 mm
09:30 PM 65.7°F18.7°C 62.7°F17.1°C 90% 1.2 mph SW1.9 kmh SW 2.3 mph3.7 kmh 29.72 in1006.4 mb 0.00 in0.0 mm 0.00 in/hr0.0 mm/hr 0.05 in1.3 mm
10:00 PM 66.2°F19.0°C 62.9°F17.2°C 89% Calm Calm 2.3 mph3.7 kmh 29.71 in1006.1 mb 0.00 in0.0 mm 0.00 in/hr0.0 mm/hr 0.05 in1.3 mm
10:30 PM 66.4°F19.1°C 62.4°F16.9°C 87% 2.3 mph SW3.7 kmh SW 4.6 mph7.4 kmh 29.69 in1005.4 mb 0.00 in0.0 mm 0.00 in/hr0.0 mm/hr 0.05 in1.3 mm
11:00 PM 66.7°F19.3°C 62.0°F16.7°C 85% 2.3 mph N3.7 kmh N 4.6 mph7.4 kmh 29.68 in1005.1 mb 0.00 in0.0 mm 0.00 in/hr0.0 mm/hr 0.06 in1.5 mm
11:30 PM 66.5°F19.2°C 61.8°F16.6°C 85% 4.6 mph SW7.4 kmh SW 5.8 mph9.3 kmh 29.65 in1004.1 mb 0.00 in0.0 mm 0.00 in/hr0.0 mm/hr 0.06 in1.5 mm